sensor_id;sensor_type;location;lat;lon;timestamp;temperature;humidity
10042;DHT22;5061;49.068;12.058;2023-07-31T00:02:13;15.20;99.90
10042;DHT22;5061;49.068;12.058;2023-07-31T00:05:34;15.10;99.90
10042;DHT22;5061;49.068;12.058;2023-07-31T00:08:54;15.10;99.90
10042;DHT22;5061;49.068;12.058;2023-07-31T00:12:15;15.10;99.90
10042;DHT22;5061;49.068;12.058;2023-07-31T00:15:35;15.00;99.90
10042;DHT22;5061;49.068;12.058;2023-07-31T00:18:56;15.00;99.90
10042;DHT22;5061;49.068;12.058;2023-07-31T00:22:16;15.00;99.90
10042;DHT22;5061;49.068;12.058;2023-07-31T00:25:37;14.90;99.90
10042;DHT22;5061;49.068;12.058;2023-07-31T00:28:58;14.80;99.90
10042;DHT22;5061;49.068;12.058;2023-07-31T00:32:18;14.80;99.90
10042;DHT22;5061;49.068;12.058;2023-07-31T00:35:39;14.80;99.90
10042;DHT22;5061;49.068;12.058;2023-07-31T00:38:59;14.80;99.90
10042;DHT22;5061;49.068;12.058;2023-07-31T00:42:20;14.70;99.90
10042;DHT22;5061;49.068;12.058;2023-07-31T00:45:41;14.70;99.90
10042;DHT22;5061;49.068;12.058;2023-07-31T00:49:01;14.70;99.90
10042;DHT22;5061;49.068;12.058;2023-07-31T00:52:22;14.60;99.90
10042;DHT22;5061;49.068;12.058;2023-07-31T00:55:43;14.60;99.90
10042;DHT22;5061;49.068;12.058;2023-07-31T00:59:04;14.60;99.90
10042;DHT22;5061;49.068;12.058;2023-07-31T01:02:25;14.60;99.90
10042;DHT22;5061;49.068;12.058;2023-07-31T01:06:22;14.50;99.90
10042;DHT22;5061;49.068;12.058;2023-07-31T01:10:03;14.40;99.90
10042;DHT22;5061;49.068;12.058;2023-07-31T01:13:25;14.40;99.90
10042;DHT22;5061;49.068;12.058;2023-07-31T01:16:45;14.30;99.90
10042;DHT22;5061;49.068;12.058;2023-07-31T01:20:11;14.30;99.90
10042;DHT22;5061;49.068;12.058;2023-07-31T01:23:38;14.30;99.90
10042;DHT22;5061;49.068;12.058;2023-07-31T01:27:08;14.30;99.90
10042;DHT22;5061;49.068;12.058;2023-07-31T01:30:33;14.30;99.90
10042;DHT22;5061;49.068;12.058;2023-07-31T01:33:59;14.20;99.90
10042;DHT22;5061;49.068;12.058;2023-07-31T01:37:21;14.20;99.90
10042;DHT22;5061;49.068;12.058;2023-07-31T01:40:42;14.20;99.90
10042;DHT22;5061;49.068;12.058;2023-07-31T01:44:02;14.20;99.90
10042;DHT22;5061;49.068;12.058;2023-07-31T01:47:23;14.20;99.90
10042;DHT22;5061;49.068;12.058;2023-07-31T01:50:44;14.20;99.90
10042;DHT22;5061;49.068;12.058;2023-07-31T01:54:04;14.20;99.90
10042;DHT22;5061;49.068;12.058;2023-07-31T01:57:25;14.30;99.90
10042;DHT22;5061;49.068;12.058;2023-07-31T02:00:46;14.20;99.90
10042;DHT22;5061;49.068;12.058;2023-07-31T02:04:06;14.30;99.90
10042;DHT22;5061;49.068;12.058;2023-07-31T02:07:27;14.20;99.90
10042;DHT22;5061;49.068;12.058;2023-07-31T02:10:48;14.20;99.90
10042;DHT22;5061;49.068;12.058;2023-07-31T02:14:08;14.20;99.90
10042;DHT22;5061;49.068;12.058;2023-07-31T02:17:29;14.20;99.90
10042;DHT22;5061;49.068;12.058;2023-07-31T02:20:50;14.20;99.90
10042;DHT22;5061;49.068;12.058;2023-07-31T02:24:11;14.20;99.90
10042;DHT22;5061;49.068;12.058;2023-07-31T02:27:32;14.10;99.90
10042;DHT22;5061;49.068;12.058;2023-07-31T02:30:52;14.10;99.90
10042;DHT22;5061;49.068;12.058;2023-07-31T02:34:13;14.10;99.90
10042;DHT22;5061;49.068;12.058;2023-07-31T02:37:34;14.10;99.90
10042;DHT22;5061;49.068;12.058;2023-07-31T02:40:54;14.10;99.90
10042;DHT22;5061;49.068;12.058;2023-07-31T02:44:15;14.00;99.90
10042;DHT22;5061;49.068;12.058;2023-07-31T02:47:36;14.00;99.90
10042;DHT22;5061;49.068;12.058;2023-07-31T02:50:56;14.00;99.90
10042;DHT22;5061;49.068;12.058;2023-07-31T02:54:17;14.00;99.90
10042;DHT22;5061;49.068;12.058;2023-07-31T02:57:37;14.00;99.90
10042;DHT22;5061;49.068;12.058;2023-07-31T03:00:59;14.00;99.90
10042;DHT22;5061;49.068;12.058;2023-07-31T03:04:19;14.00;99.90
10042;DHT22;5061;49.068;12.058;2023-07-31T03:07:40;14.00;99.90
10042;DHT22;5061;49.068;12.058;2023-07-31T03:11:00;14.00;99.90
10042;DHT22;5061;49.068;12.058;2023-07-31T03:14:21;14.00;99.90
10042;DHT22;5061;49.068;12.058;2023-07-31T03:17:42;14.00;99.90
10042;DHT22;5061;49.068;12.058;2023-07-31T03:21:02;13.90;99.90
10042;DHT22;5061;49.068;12.058;2023-07-31T03:24:24;13.90;99.90
10042;DHT22;5061;49.068;12.058;2023-07-31T03:27:45;13.90;99.90
10042;DHT22;5061;49.068;12.058;2023-07-31T03:31:05;13.90;99.90
10042;DHT22;5061;49.068;12.058;2023-07-31T03:34:26;13.90;99.90
10042;DHT22;5061;49.068;12.058;2023-07-31T03:37:47;13.90;99.90
10042;DHT22;5061;49.068;12.058;2023-07-31T03:41:07;13.90;99.90
10042;DHT22;5061;49.068;12.058;2023-07-31T03:44:28;13.90;99.90
10042;DHT22;5061;49.068;12.058;2023-07-31T03:47:49;13.90;99.90
10042;DHT22;5061;49.068;12.058;2023-07-31T03:51:09;13.90;99.90
10042;DHT22;5061;49.068;12.058;2023-07-31T03:54:30;13.90;99.90
10042;DHT22;5061;49.068;12.058;2023-07-31T03:57:50;13.90;99.90
10042;DHT22;5061;49.068;12.058;2023-07-31T04:01:11;13.90;99.90
10042;DHT22;5061;49.068;12.058;2023-07-31T04:04:31;14.00;99.90
10042;DHT22;5061;49.068;12.058;2023-07-31T04:07:52;14.00;99.90
10042;DHT22;5061;49.068;12.058;2023-07-31T04:11:13;14.00;99.90
10042;DHT22;5061;49.068;12.058;2023-07-31T04:14:33;14.00;99.90
10042;DHT22;5061;49.068;12.058;2023-07-31T04:17:54;14.10;99.90
10042;DHT22;5061;49.068;12.058;2023-07-31T04:21:14;14.10;99.90
10042;DHT22;5061;49.068;12.058;2023-07-31T04:24:35;14.00;99.90
10042;DHT22;5061;49.068;12.058;2023-07-31T04:27:56;14.10;99.90
10042;DHT22;5061;49.068;12.058;2023-07-31T04:31:16;14.10;99.90
10042;DHT22;5061;49.068;12.058;2023-07-31T04:34:37;14.10;99.90
10042;DHT22;5061;49.068;12.058;2023-07-31T04:37:57;14.10;99.90
10042;DHT22;5061;49.068;12.058;2023-07-31T04:41:18;14.10;99.90
10042;DHT22;5061;49.068;12.058;2023-07-31T04:44:41;14.10;99.90
10042;DHT22;5061;49.068;12.058;2023-07-31T04:48:03;14.10;99.90
10042;DHT22;5061;49.068;12.058;2023-07-31T04:51:24;14.20;99.90
10042;DHT22;5061;49.068;12.058;2023-07-31T04:54:45;14.20;99.90
10042;DHT22;5061;49.068;12.058;2023-07-31T04:58:06;14.20;99.90
10042;DHT22;5061;49.068;12.058;2023-07-31T05:01:26;14.30;99.90
10042;DHT22;5061;49.068;12.058;2023-07-31T05:04:47;14.30;99.90
10042;DHT22;5061;49.068;12.058;2023-07-31T05:08:08;14.40;99.90
10042;DHT22;5061;49.068;12.058;2023-07-31T05:11:28;14.40;99.90
10042;DHT22;5061;49.068;12.058;2023-07-31T05:14:49;14.50;99.90
10042;DHT22;5061;49.068;12.058;2023-07-31T05:18:10;14.60;99.90
10042;DHT22;5061;49.068;12.058;2023-07-31T05:21:30;14.70;99.90
10042;DHT22;5061;49.068;12.058;2023-07-31T05:24:51;14.70;99.90
10042;DHT22;5061;49.068;12.058;2023-07-31T05:28:12;14.80;99.90
10042;DHT22;5061;49.068;12.058;2023-07-31T05:31:33;14.80;99.90
10042;DHT22;5061;49.068;12.058;2023-07-31T05:34:54;14.80;99.90
10042;DHT22;5061;49.068;12.058;2023-07-31T05:38:14;14.80;99.90
10042;DHT22;5061;49.068;12.058;2023-07-31T05:41:35;14.80;99.90
10042;DHT22;5061;49.068;12.058;2023-07-31T05:44:56;14.90;99.90
10042;DHT22;5061;49.068;12.058;2023-07-31T05:48:16;15.00;99.90
10042;DHT22;5061;49.068;12.058;2023-07-31T05:51:37;15.10;99.90
10042;DHT22;5061;49.068;12.058;2023-07-31T05:54:58;15.20;99.90
10042;DHT22;5061;49.068;12.058;2023-07-31T05:58:18;15.30;99.90
10042;DHT22;5061;49.068;12.058;2023-07-31T06:01:39;15.50;99.90
10042;DHT22;5061;49.068;12.058;2023-07-31T06:05:00;15.60;99.90
10042;DHT22;5061;49.068;12.058;2023-07-31T06:08:21;15.70;99.90
10042;DHT22;5061;49.068;12.058;2023-07-31T06:11:42;15.80;99.90
10042;DHT22;5061;49.068;12.058;2023-07-31T06:15:03;15.80;99.90
10042;DHT22;5061;49.068;12.058;2023-07-31T06:18:24;15.90;99.90
10042;DHT22;5061;49.068;12.058;2023-07-31T06:21:44;15.90;99.90
10042;DHT22;5061;49.068;12.058;2023-07-31T06:25:05;15.90;99.90
10042;DHT22;5061;49.068;12.058;2023-07-31T06:28:30;16.00;99.90
10042;DHT22;5061;49.068;12.058;2023-07-31T06:31:50;16.10;99.90
10042;DHT22;5061;49.068;12.058;2023-07-31T06:35:11;16.10;99.90
10042;DHT22;5061;49.068;12.058;2023-07-31T06:38:32;16.10;99.90
10042;DHT22;5061;49.068;12.058;2023-07-31T06:41:52;16.20;99.90
10042;DHT22;5061;49.068;12.058;2023-07-31T06:45:13;16.20;99.90
10042;DHT22;5061;49.068;12.058;2023-07-31T06:48:34;16.30;99.90
10042;DHT22;5061;49.068;12.058;2023-07-31T06:51:54;16.40;99.90
10042;DHT22;5061;49.068;12.058;2023-07-31T06:55:25;16.40;99.90
10042;DHT22;5061;49.068;12.058;2023-07-31T06:58:45;16.60;99.90
10042;DHT22;5061;49.068;12.058;2023-07-31T07:02:06;16.60;99.90
10042;DHT22;5061;49.068;12.058;2023-07-31T07:05:28;16.70;99.90
10042;DHT22;5061;49.068;12.058;2023-07-31T07:08:48;16.80;99.90
10042;DHT22;5061;49.068;12.058;2023-07-31T07:12:09;16.90;99.90
10042;DHT22;5061;49.068;12.058;2023-07-31T07:15:30;17.00;99.90
10042;DHT22;5061;49.068;12.058;2023-07-31T07:18:50;17.10;99.90
10042;DHT22;5061;49.068;12.058;2023-07-31T07:22:11;17.20;99.90
10042;DHT22;5061;49.068;12.058;2023-07-31T07:25:32;17.20;99.90
10042;DHT22;5061;49.068;12.058;2023-07-31T07:28:52;17.40;99.90
10042;DHT22;5061;49.068;12.058;2023-07-31T07:32:13;17.40;99.90
10042;DHT22;5061;49.068;12.058;2023-07-31T07:35:35;17.50;99.90
10042;DHT22;5061;49.068;12.058;2023-07-31T07:38:55;17.60;99.90
10042;DHT22;5061;49.068;12.058;2023-07-31T07:42:18;17.60;99.90
10042;DHT22;5061;49.068;12.058;2023-07-31T07:45:38;17.60;99.90
10042;DHT22;5061;49.068;12.058;2023-07-31T07:48:59;17.70;99.90
10042;DHT22;5061;49.068;12.058;2023-07-31T07:52:20;17.70;99.90
10042;DHT22;5061;49.068;12.058;2023-07-31T07:55:40;17.80;99.90
10042;DHT22;5061;49.068;12.058;2023-07-31T07:59:01;17.90;99.90
10042;DHT22;5061;49.068;12.058;2023-07-31T08:02:22;17.90;99.90
10042;DHT22;5061;49.068;12.058;2023-07-31T08:05:43;17.90;99.90
10042;DHT22;5061;49.068;12.058;2023-07-31T08:09:04;18.00;99.90
10042;DHT22;5061;49.068;12.058;2023-07-31T08:12:26;18.00;99.90
10042;DHT22;5061;49.068;12.058;2023-07-31T08:15:47;18.10;99.90
10042;DHT22;5061;49.068;12.058;2023-07-31T08:19:07;18.20;99.90
10042;DHT22;5061;49.068;12.058;2023-07-31T08:22:28;18.30;99.90
10042;DHT22;5061;49.068;12.058;2023-07-31T08:25:48;18.30;99.90
10042;DHT22;5061;49.068;12.058;2023-07-31T08:29:11;18.40;99.90
10042;DHT22;5061;49.068;12.058;2023-07-31T08:32:31;18.50;99.90
10042;DHT22;5061;49.068;12.058;2023-07-31T08:35:52;18.50;99.90
10042;DHT22;5061;49.068;12.058;2023-07-31T08:39:12;18.60;99.90
10042;DHT22;5061;49.068;12.058;2023-07-31T08:42:33;18.70;99.90
10042;DHT22;5061;49.068;12.058;2023-07-31T08:45:54;18.70;99.90
10042;DHT22;5061;49.068;12.058;2023-07-31T08:49:16;18.80;99.90
10042;DHT22;5061;49.068;12.058;2023-07-31T08:52:38;18.90;99.90
10042;DHT22;5061;49.068;12.058;2023-07-31T08:55:59;19.00;99.90
10042;DHT22;5061;49.068;12.058;2023-07-31T08:59:20;19.00;99.90
10042;DHT22;5061;49.068;12.058;2023-07-31T09:03:02;19.00;99.90
10042;DHT22;5061;49.068;12.058;2023-07-31T09:06:25;19.10;99.90
10042;DHT22;5061;49.068;12.058;2023-07-31T09:09:48;19.10;99.90
10042;DHT22;5061;49.068;12.058;2023-07-31T09:13:09;19.20;99.90
10042;DHT22;5061;49.068;12.058;2023-07-31T09:16:30;19.30;99.90
10042;DHT22;5061;49.068;12.058;2023-07-31T09:19:53;19.40;99.90
10042;DHT22;5061;49.068;12.058;2023-07-31T09:23:14;19.50;99.90
10042;DHT22;5061;49.068;12.058;2023-07-31T09:26:36;19.60;99.90
10042;DHT22;5061;49.068;12.058;2023-07-31T09:30:00;19.70;99.90
10042;DHT22;5061;49.068;12.058;2023-07-31T09:33:21;19.70;99.90
10042;DHT22;5061;49.068;12.058;2023-07-31T09:36:47;19.70;99.90
10042;DHT22;5061;49.068;12.058;2023-07-31T09:40:08;19.70;99.90
10042;DHT22;5061;49.068;12.058;2023-07-31T09:43:28;19.80;99.90
10042;DHT22;5061;49.068;12.058;2023-07-31T09:46:49;19.80;99.90
10042;DHT22;5061;49.068;12.058;2023-07-31T09:50:10;19.90;99.90
10042;DHT22;5061;49.068;12.058;2023-07-31T09:53:30;19.90;99.90
10042;DHT22;5061;49.068;12.058;2023-07-31T09:56:51;20.00;99.90
10042;DHT22;5061;49.068;12.058;2023-07-31T10:00:15;20.10;99.90
10042;DHT22;5061;49.068;12.058;2023-07-31T10:03:37;20.20;99.90
10042;DHT22;5061;49.068;12.058;2023-07-31T10:06:59;20.20;99.90
10042;DHT22;5061;49.068;12.058;2023-07-31T10:10:22;20.30;99.90
10042;DHT22;5061;49.068;12.058;2023-07-31T10:13:44;20.50;99.90
10042;DHT22;5061;49.068;12.058;2023-07-31T10:17:06;20.70;99.90
10042;DHT22;5061;49.068;12.058;2023-07-31T10:20:28;20.70;99.90
10042;DHT22;5061;49.068;12.058;2023-07-31T10:23:50;20.70;99.90
10042;DHT22;5061;49.068;12.058;2023-07-31T10:27:11;20.70;99.90
10042;DHT22;5061;49.068;12.058;2023-07-31T10:30:33;20.80;99.90
10042;DHT22;5061;49.068;12.058;2023-07-31T10:33:57;20.90;99.90
10042;DHT22;5061;49.068;12.058;2023-07-31T10:37:29;20.90;99.90
10042;DHT22;5061;49.068;12.058;2023-07-31T10:40:50;21.00;99.90
10042;DHT22;5061;49.068;12.058;2023-07-31T10:44:13;21.00;99.90
10042;DHT22;5061;49.068;12.058;2023-07-31T10:47:44;21.00;99.90
10042;DHT22;5061;49.068;12.058;2023-07-31T10:51:09;21.00;99.90
10042;DHT22;5061;49.068;12.058;2023-07-31T10:54:33;20.90;99.90
10042;DHT22;5061;49.068;12.058;2023-07-31T10:57:55;20.90;99.90
10042;DHT22;5061;49.068;12.058;2023-07-31T11:01:16;20.80;99.90
10042;DHT22;5061;49.068;12.058;2023-07-31T11:04:37;20.80;99.90
10042;DHT22;5061;49.068;12.058;2023-07-31T11:07:58;20.90;99.90
10042;DHT22;5061;49.068;12.058;2023-07-31T11:11:19;20.90;99.90
10042;DHT22;5061;49.068;12.058;2023-07-31T11:14:40;21.00;99.90
10042;DHT22;5061;49.068;12.058;2023-07-31T11:18:02;21.20;99.90
10042;DHT22;5061;49.068;12.058;2023-07-31T11:21:31;21.30;99.90
10042;DHT22;5061;49.068;12.058;2023-07-31T11:24:52;21.40;99.90
10042;DHT22;5061;49.068;12.058;2023-07-31T11:28:14;21.60;99.90
10042;DHT22;5061;49.068;12.058;2023-07-31T11:31:42;21.70;99.70
10042;DHT22;5061;49.068;12.058;2023-07-31T11:35:03;21.80;99.40
10042;DHT22;5061;49.068;12.058;2023-07-31T11:38:28;22.00;99.30
10042;DHT22;5061;49.068;12.058;2023-07-31T11:41:49;22.10;98.30
10042;DHT22;5061;49.068;12.058;2023-07-31T11:45:09;22.30;98.40
10042;DHT22;5061;49.068;12.058;2023-07-31T11:48:32;22.40;98.70
10042;DHT22;5061;49.068;12.058;2023-07-31T11:51:56;22.70;98.90
10042;DHT22;5061;49.068;12.058;2023-07-31T11:55:17;23.00;98.50
10042;DHT22;5061;49.068;12.058;2023-07-31T11:58:39;23.10;97.90
10042;DHT22;5061;49.068;12.058;2023-07-31T12:02:01;23.20;97.80
10042;DHT22;5061;49.068;12.058;2023-07-31T12:05:22;23.20;97.70
10042;DHT22;5061;49.068;12.058;2023-07-31T12:08:49;23.20;96.90
10042;DHT22;5061;49.068;12.058;2023-07-31T12:12:09;23.20;96.70
10042;DHT22;5061;49.068;12.058;2023-07-31T12:15:44;23.20;96.80
10042;DHT22;5061;49.068;12.058;2023-07-31T12:19:04;23.30;96.80
10042;DHT22;5061;49.068;12.058;2023-07-31T12:22:26;23.40;96.50
10042;DHT22;5061;49.068;12.058;2023-07-31T12:25:46;23.50;96.90
10042;DHT22;5061;49.068;12.058;2023-07-31T12:29:07;23.70;96.40
10042;DHT22;5061;49.068;12.058;2023-07-31T12:32:30;23.70;96.10
10042;DHT22;5061;49.068;12.058;2023-07-31T12:35:51;23.70;96.60
10042;DHT22;5061;49.068;12.058;2023-07-31T12:39:12;23.90;96.70
10042;DHT22;5061;49.068;12.058;2023-07-31T12:42:33;24.20;96.50
10042;DHT22;5061;49.068;12.058;2023-07-31T12:45:55;24.40;95.90
10042;DHT22;5061;49.068;12.058;2023-07-31T12:49:16;24.40;95.60
10042;DHT22;5061;49.068;12.058;2023-07-31T12:52:37;24.30;95.50
10042;DHT22;5061;49.068;12.058;2023-07-31T12:55:57;24.30;95.30
10042;DHT22;5061;49.068;12.058;2023-07-31T12:59:18;24.40;94.90
10042;DHT22;5061;49.068;12.058;2023-07-31T13:02:39;24.30;94.90
10042;DHT22;5061;49.068;12.058;2023-07-31T13:05:59;24.20;95.00
10042;DHT22;5061;49.068;12.058;2023-07-31T13:09:20;24.00;95.20
10042;DHT22;5061;49.068;12.058;2023-07-31T13:12:41;23.90;95.10
10042;DHT22;5061;49.068;12.058;2023-07-31T13:16:01;23.90;95.00
10042;DHT22;5061;49.068;12.058;2023-07-31T13:19:22;23.80;94.80
10042;DHT22;5061;49.068;12.058;2023-07-31T13:22:42;23.90;94.50
10042;DHT22;5061;49.068;12.058;2023-07-31T13:26:03;24.00;94.50
10042;DHT22;5061;49.068;12.058;2023-07-31T13:29:24;24.00;94.60
10042;DHT22;5061;49.068;12.058;2023-07-31T13:32:44;23.90;94.30
10042;DHT22;5061;49.068;12.058;2023-07-31T13:36:05;23.80;94.40
10042;DHT22;5061;49.068;12.058;2023-07-31T13:39:26;24.00;94.70
10042;DHT22;5061;49.068;12.058;2023-07-31T13:42:46;24.20;94.50
10042;DHT22;5061;49.068;12.058;2023-07-31T13:46:08;24.40;94.40
10042;DHT22;5061;49.068;12.058;2023-07-31T13:49:31;24.30;93.80
10042;DHT22;5061;49.068;12.058;2023-07-31T13:52:52;24.20;93.90
10042;DHT22;5061;49.068;12.058;2023-07-31T13:56:13;24.10;93.90
10042;DHT22;5061;49.068;12.058;2023-07-31T13:59:33;23.90;93.90
10042;DHT22;5061;49.068;12.058;2023-07-31T14:02:54;23.90;94.00
10042;DHT22;5061;49.068;12.058;2023-07-31T14:06:14;23.80;94.10
10042;DHT22;5061;49.068;12.058;2023-07-31T14:09:35;23.90;94.10
10042;DHT22;5061;49.068;12.058;2023-07-31T14:12:56;24.00;94.20
10042;DHT22;5061;49.068;12.058;2023-07-31T14:16:16;24.20;94.10
10042;DHT22;5061;49.068;12.058;2023-07-31T14:19:37;24.20;93.90
10042;DHT22;5061;49.068;12.058;2023-07-31T14:22:58;24.30;93.70
10042;DHT22;5061;49.068;12.058;2023-07-31T14:26:19;24.20;93.60
10042;DHT22;5061;49.068;12.058;2023-07-31T14:29:39;24.20;93.10
10042;DHT22;5061;49.068;12.058;2023-07-31T14:33:00;24.20;93.50
10042;DHT22;5061;49.068;12.058;2023-07-31T14:36:22;24.20;93.30
10042;DHT22;5061;49.068;12.058;2023-07-31T14:39:43;24.20;93.20
10042;DHT22;5061;49.068;12.058;2023-07-31T14:43:04;24.30;93.10
10042;DHT22;5061;49.068;12.058;2023-07-31T14:46:25;24.30;93.20
10042;DHT22;5061;49.068;12.058;2023-07-31T14:49:45;24.20;93.10
10042;DHT22;5061;49.068;12.058;2023-07-31T14:53:06;24.20;93.40
10042;DHT22;5061;49.068;12.058;2023-07-31T14:56:27;24.20;93.40
10042;DHT22;5061;49.068;12.058;2023-07-31T14:59:48;24.30;93.40
10042;DHT22;5061;49.068;12.058;2023-07-31T15:03:08;24.40;93.40
10042;DHT22;5061;49.068;12.058;2023-07-31T15:06:29;24.40;93.10
10042;DHT22;5061;49.068;12.058;2023-07-31T15:09:50;24.30;93.30
10042;DHT22;5061;49.068;12.058;2023-07-31T15:13:10;24.30;93.30
10042;DHT22;5061;49.068;12.058;2023-07-31T15:16:31;24.20;93.10
10042;DHT22;5061;49.068;12.058;2023-07-31T15:19:52;24.10;93.20
10042;DHT22;5061;49.068;12.058;2023-07-31T15:23:14;24.10;93.10
10042;DHT22;5061;49.068;12.058;2023-07-31T15:26:36;24.10;93.30
10042;DHT22;5061;49.068;12.058;2023-07-31T15:29:57;24.00;93.20
10042;DHT22;5061;49.068;12.058;2023-07-31T15:33:21;24.00;93.00
10042;DHT22;5061;49.068;12.058;2023-07-31T15:36:42;23.90;93.30
10042;DHT22;5061;49.068;12.058;2023-07-31T15:40:03;23.80;93.40
10042;DHT22;5061;49.068;12.058;2023-07-31T15:43:24;23.80;93.20
10042;DHT22;5061;49.068;12.058;2023-07-31T15:46:45;23.70;93.30
10042;DHT22;5061;49.068;12.058;2023-07-31T15:50:06;23.60;93.20
10042;DHT22;5061;49.068;12.058;2023-07-31T15:53:27;23.50;93.00
10042;DHT22;5061;49.068;12.058;2023-07-31T15:56:47;23.40;93.10
10042;DHT22;5061;49.068;12.058;2023-07-31T16:00:08;23.30;93.20
10042;DHT22;5061;49.068;12.058;2023-07-31T16:03:29;23.30;93.10
10042;DHT22;5061;49.068;12.058;2023-07-31T16:06:50;23.20;93.10
10042;DHT22;5061;49.068;12.058;2023-07-31T16:10:11;23.10;93.20
10042;DHT22;5061;49.068;12.058;2023-07-31T16:13:31;23.00;93.30
10042;DHT22;5061;49.068;12.058;2023-07-31T16:16:52;22.90;93.20
10042;DHT22;5061;49.068;12.058;2023-07-31T16:20:12;22.90;93.30
10042;DHT22;5061;49.068;12.058;2023-07-31T16:23:33;22.80;93.30
10042;DHT22;5061;49.068;12.058;2023-07-31T16:26:54;22.70;93.40
10042;DHT22;5061;49.068;12.058;2023-07-31T16:30:14;22.70;93.50
10042;DHT22;5061;49.068;12.058;2023-07-31T16:33:35;22.70;93.50
10042;DHT22;5061;49.068;12.058;2023-07-31T16:36:55;22.60;93.50
10042;DHT22;5061;49.068;12.058;2023-07-31T16:40:16;22.60;93.60
10042;DHT22;5061;49.068;12.058;2023-07-31T16:43:37;22.60;93.80
10042;DHT22;5061;49.068;12.058;2023-07-31T16:46:57;22.60;93.90
10042;DHT22;5061;49.068;12.058;2023-07-31T16:50:18;22.50;94.00
10042;DHT22;5061;49.068;12.058;2023-07-31T16:53:38;22.50;94.10
10042;DHT22;5061;49.068;12.058;2023-07-31T16:56:59;22.60;94.20
10042;DHT22;5061;49.068;12.058;2023-07-31T17:00:20;22.50;94.20
10042;DHT22;5061;49.068;12.058;2023-07-31T17:03:41;22.50;94.30
10042;DHT22;5061;49.068;12.058;2023-07-31T17:07:01;22.50;94.30
10042;DHT22;5061;49.068;12.058;2023-07-31T17:10:22;22.50;94.60
10042;DHT22;5061;49.068;12.058;2023-07-31T17:13:42;22.50;94.50
10042;DHT22;5061;49.068;12.058;2023-07-31T17:17:03;22.40;94.60
10042;DHT22;5061;49.068;12.058;2023-07-31T17:20:24;22.40;94.70
10042;DHT22;5061;49.068;12.058;2023-07-31T17:23:45;22.30;94.70
10042;DHT22;5061;49.068;12.058;2023-07-31T17:27:05;22.30;94.80
10042;DHT22;5061;49.068;12.058;2023-07-31T17:30:26;22.20;94.80
10042;DHT22;5061;49.068;12.058;2023-07-31T17:33:46;22.20;94.90
10042;DHT22;5061;49.068;12.058;2023-07-31T17:37:07;22.10;94.90
10042;DHT22;5061;49.068;12.058;2023-07-31T17:40:28;22.10;95.10
10042;DHT22;5061;49.068;12.058;2023-07-31T17:43:48;22.10;95.10
10042;DHT22;5061;49.068;12.058;2023-07-31T17:47:09;22.00;95.10
10042;DHT22;5061;49.068;12.058;2023-07-31T17:50:30;22.00;95.20
10042;DHT22;5061;49.068;12.058;2023-07-31T17:53:51;22.00;95.30
10042;DHT22;5061;49.068;12.058;2023-07-31T17:57:11;21.90;95.30
10042;DHT22;5061;49.068;12.058;2023-07-31T18:00:32;21.90;95.40
10042;DHT22;5061;49.068;12.058;2023-07-31T18:03:52;21.90;95.50
10042;DHT22;5061;49.068;12.058;2023-07-31T18:07:13;21.80;95.60
10042;DHT22;5061;49.068;12.058;2023-07-31T18:10:34;21.70;95.70
10042;DHT22;5061;49.068;12.058;2023-07-31T18:13:54;21.70;95.80
10042;DHT22;5061;49.068;12.058;2023-07-31T18:17:15;21.60;95.90
10042;DHT22;5061;49.068;12.058;2023-07-31T18:20:36;21.50;96.00
10042;DHT22;5061;49.068;12.058;2023-07-31T18:23:57;21.40;96.10
10042;DHT22;5061;49.068;12.058;2023-07-31T18:27:17;21.40;96.20
10042;DHT22;5061;49.068;12.058;2023-07-31T18:30:38;21.30;96.30
10042;DHT22;5061;49.068;12.058;2023-07-31T18:34:00;21.20;96.40
10042;DHT22;5061;49.068;12.058;2023-07-31T18:37:20;21.10;96.50
10042;DHT22;5061;49.068;12.058;2023-07-31T18:40:41;21.10;96.60
10042;DHT22;5061;49.068;12.058;2023-07-31T18:44:01;21.00;96.70
10042;DHT22;5061;49.068;12.058;2023-07-31T18:47:22;20.90;96.80
10042;DHT22;5061;49.068;12.058;2023-07-31T18:50:42;20.80;96.90
10042;DHT22;5061;49.068;12.058;2023-07-31T18:54:04;20.80;97.00
10042;DHT22;5061;49.068;12.058;2023-07-31T18:57:26;20.70;97.00
10042;DHT22;5061;49.068;12.058;2023-07-31T19:00:47;20.70;97.20
10042;DHT22;5061;49.068;12.058;2023-07-31T19:04:07;20.60;97.30
10042;DHT22;5061;49.068;12.058;2023-07-31T19:07:28;20.60;97.40
10042;DHT22;5061;49.068;12.058;2023-07-31T19:10:48;20.50;97.40
10042;DHT22;5061;49.068;12.058;2023-07-31T19:14:09;20.50;97.60
10042;DHT22;5061;49.068;12.058;2023-07-31T19:17:29;20.50;97.60
10042;DHT22;5061;49.068;12.058;2023-07-31T19:20:50;20.50;97.80
10042;DHT22;5061;49.068;12.058;2023-07-31T19:24:11;20.40;97.80
10042;DHT22;5061;49.068;12.058;2023-07-31T19:27:31;20.40;97.90
10042;DHT22;5061;49.068;12.058;2023-07-31T19:30:52;20.40;98.00
10042;DHT22;5061;49.068;12.058;2023-07-31T19:34:12;20.40;98.10
10042;DHT22;5061;49.068;12.058;2023-07-31T19:37:33;20.40;98.10
10042;DHT22;5061;49.068;12.058;2023-07-31T19:40:54;20.40;98.20
10042;DHT22;5061;49.068;12.058;2023-07-31T19:44:14;20.30;98.20
10042;DHT22;5061;49.068;12.058;2023-07-31T19:47:35;20.30;98.30
10042;DHT22;5061;49.068;12.058;2023-07-31T19:50:55;20.30;98.50
10042;DHT22;5061;49.068;12.058;2023-07-31T19:54:16;20.20;98.50
10042;DHT22;5061;49.068;12.058;2023-07-31T19:57:39;20.20;98.50
10042;DHT22;5061;49.068;12.058;2023-07-31T20:00:59;20.20;98.60
10042;DHT22;5061;49.068;12.058;2023-07-31T20:04:20;20.20;98.70
10042;DHT22;5061;49.068;12.058;2023-07-31T20:07:41;20.20;98.80
10042;DHT22;5061;49.068;12.058;2023-07-31T20:11:01;20.20;99.00
10042;DHT22;5061;49.068;12.058;2023-07-31T20:14:23;20.10;99.00
10042;DHT22;5061;49.068;12.058;2023-07-31T20:17:43;20.10;99.20
10042;DHT22;5061;49.068;12.058;2023-07-31T20:21:04;20.10;99.30
10042;DHT22;5061;49.068;12.058;2023-07-31T20:24:24;20.10;99.30
10042;DHT22;5061;49.068;12.058;2023-07-31T20:27:45;20.00;99.30
10042;DHT22;5061;49.068;12.058;2023-07-31T20:31:05;20.00;99.40
10042;DHT22;5061;49.068;12.058;2023-07-31T20:34:26;20.00;99.60
10042;DHT22;5061;49.068;12.058;2023-07-31T20:37:47;20.00;99.60
10042;DHT22;5061;49.068;12.058;2023-07-31T20:41:09;19.90;99.70
10042;DHT22;5061;49.068;12.058;2023-07-31T20:44:29;19.90;99.70
10042;DHT22;5061;49.068;12.058;2023-07-31T20:47:50;19.90;99.80
10042;DHT22;5061;49.068;12.058;2023-07-31T20:51:11;19.90;99.80
10042;DHT22;5061;49.068;12.058;2023-07-31T20:54:31;19.90;99.90
10042;DHT22;5061;49.068;12.058;2023-07-31T20:57:52;19.90;99.90
10042;DHT22;5061;49.068;12.058;2023-07-31T21:01:12;19.90;99.90
10042;DHT22;5061;49.068;12.058;2023-07-31T21:04:33;19.90;99.90
10042;DHT22;5061;49.068;12.058;2023-07-31T21:08:01;19.80;99.90
10042;DHT22;5061;49.068;12.058;2023-07-31T21:11:22;19.80;99.90